sensor_id;sensor_type;location;lat;lon;timestamp;pressure;altitude;pressure_sealevel;temperature;humidity
47592;BME280;33317;33.356;-117.184;2022-08-30T00:00:08;98830.94;;;28.80;23.08
47592;BME280;33317;33.356;-117.184;2022-08-30T00:02:37;98826.74;;;28.69;23.02
47592;BME280;33317;33.356;-117.184;2022-08-30T00:05:05;98826.65;;;28.55;23.03
47592;BME280;33317;33.356;-117.184;2022-08-30T00:07:34;98835.75;;;28.25;23.19
47592;BME280;33317;33.356;-117.184;2022-08-30T00:10:05;98835.45;;;28.36;23.00
47592;BME280;33317;33.356;-117.184;2022-08-30T00:12:33;98833.03;;;28.32;23.05
47592;BME280;33317;33.356;-117.184;2022-08-30T00:15:02;98830.34;;;28.61;22.98
47592;BME280;33317;33.356;-117.184;2022-08-30T00:17:31;98834.99;;;28.81;22.65
47592;BME280;33317;33.356;-117.184;2022-08-30T00:19:59;98831.29;;;28.97;22.58
47592;BME280;33317;33.356;-117.184;2022-08-30T00:22:28;98829.25;;;29.01;22.33
47592;BME280;33317;33.356;-117.184;2022-08-30T00:24:56;98835.69;;;29.14;22.33
47592;BME280;33317;33.356;-117.184;2022-08-30T00:27:25;98833.87;;;28.77;22.53
47592;BME280;33317;33.356;-117.184;2022-08-30T00:29:53;98837.82;;;28.55;22.47
47592;BME280;33317;33.356;-117.184;2022-08-30T00:32:21;98835.97;;;28.84;22.66
47592;BME280;33317;33.356;-117.184;2022-08-30T00:34:50;98835.76;;;29.12;22.54
47592;BME280;33317;33.356;-117.184;2022-08-30T00:37:20;98835.08;;;29.33;22.46
47592;BME280;33317;33.356;-117.184;2022-08-30T00:39:49;98834.98;;;29.35;22.11
47592;BME280;33317;33.356;-117.184;2022-08-30T00:42:19;98833.65;;;29.27;22.09
47592;BME280;33317;33.356;-117.184;2022-08-30T00:44:48;98833.24;;;29.17;22.73
47592;BME280;33317;33.356;-117.184;2022-08-30T00:47:17;98835.83;;;28.91;22.38
47592;BME280;33317;33.356;-117.184;2022-08-30T00:49:48;98835.96;;;29.17;22.21
47592;BME280;33317;33.356;-117.184;2022-08-30T00:52:20;98837.68;;;28.99;22.26
47592;BME280;33317;33.356;-117.184;2022-08-30T00:54:51;98839.14;;;28.74;22.49
47592;BME280;33317;33.356;-117.184;2022-08-30T00:57:20;98835.30;;;29.00;22.34
47592;BME280;33317;33.356;-117.184;2022-08-30T00:59:49;98833.30;;;28.93;22.19
47592;BME280;33317;33.356;-117.184;2022-08-30T01:02:22;98834.80;;;28.82;22.48
47592;BME280;33317;33.356;-117.184;2022-08-30T01:04:56;98839.00;;;29.31;22.75
47592;BME280;33317;33.356;-117.184;2022-08-30T01:07:25;98836.70;;;29.38;23.17
47592;BME280;33317;33.356;-117.184;2022-08-30T01:09:53;98838.50;;;29.20;22.96
47592;BME280;33317;33.356;-117.184;2022-08-30T01:12:22;98835.57;;;29.07;22.87
47592;BME280;33317;33.356;-117.184;2022-08-30T01:14:50;98836.27;;;28.73;22.87
47592;BME280;33317;33.356;-117.184;2022-08-30T01:17:19;98842.41;;;29.11;22.93
47592;BME280;33317;33.356;-117.184;2022-08-30T01:19:50;98841.13;;;29.29;23.15
47592;BME280;33317;33.356;-117.184;2022-08-30T01:22:25;98838.17;;;29.48;22.99
47592;BME280;33317;33.356;-117.184;2022-08-30T01:24:58;98835.71;;;29.20;22.82
47592;BME280;33317;33.356;-117.184;2022-08-30T01:27:28;98835.74;;;29.24;22.66
47592;BME280;33317;33.356;-117.184;2022-08-30T01:29:58;98838.07;;;29.40;22.91
47592;BME280;33317;33.356;-117.184;2022-08-30T01:32:28;98840.41;;;29.46;22.79
47592;BME280;33317;33.356;-117.184;2022-08-30T01:34:57;98838.42;;;29.23;22.86
47592;BME280;33317;33.356;-117.184;2022-08-30T01:37:29;98839.27;;;29.18;22.84
47592;BME280;33317;33.356;-117.184;2022-08-30T01:39:59;98842.57;;;28.93;23.18
47592;BME280;33317;33.356;-117.184;2022-08-30T01:42:28;98842.19;;;29.02;23.23
47592;BME280;33317;33.356;-117.184;2022-08-30T01:45:02;98844.37;;;29.11;23.06
47592;BME280;33317;33.356;-117.184;2022-08-30T01:47:31;98849.07;;;29.34;23.12
47592;BME280;33317;33.356;-117.184;2022-08-30T01:49:59;98851.87;;;29.13;23.01
47592;BME280;33317;33.356;-117.184;2022-08-30T01:52:29;98855.31;;;28.63;23.15
47592;BME280;33317;33.356;-117.184;2022-08-30T01:54:58;98856.40;;;28.60;23.40
47592;BME280;33317;33.356;-117.184;2022-08-30T01:57:31;98858.58;;;28.81;23.36
47592;BME280;33317;33.356;-117.184;2022-08-30T02:00:03;98860.73;;;28.57;23.52
47592;BME280;33317;33.356;-117.184;2022-08-30T02:02:31;98867.12;;;28.92;23.38
47592;BME280;33317;33.356;-117.184;2022-08-30T02:05:00;98866.58;;;29.13;22.97
47592;BME280;33317;33.356;-117.184;2022-08-30T02:07:28;98865.52;;;29.51;22.98
47592;BME280;33317;33.356;-117.184;2022-08-30T02:09:56;98869.11;;;29.12;23.08
47592;BME280;33317;33.356;-117.184;2022-08-30T02:12:25;98873.09;;;28.77;23.25
47592;BME280;33317;33.356;-117.184;2022-08-30T02:14:57;98872.48;;;28.86;23.38
47592;BME280;33317;33.356;-117.184;2022-08-30T02:17:25;98878.30;;;29.42;23.25
47592;BME280;33317;33.356;-117.184;2022-08-30T02:19:56;98878.87;;;29.02;23.28
47592;BME280;33317;33.356;-117.184;2022-08-30T02:22:24;98879.00;;;29.53;23.17
47592;BME280;33317;33.356;-117.184;2022-08-30T02:24:55;98878.59;;;29.13;22.99
47592;BME280;33317;33.356;-117.184;2022-08-30T02:27:24;98878.54;;;29.03;23.08
47592;BME280;33317;33.356;-117.184;2022-08-30T02:29:53;98877.63;;;29.15;23.26
47592;BME280;33317;33.356;-117.184;2022-08-30T02:32:24;98880.72;;;28.91;23.26
47592;BME280;33317;33.356;-117.184;2022-08-30T02:34:53;98883.51;;;29.19;23.23
47592;BME280;33317;33.356;-117.184;2022-08-30T02:37:22;98885.08;;;29.25;23.18
47592;BME280;33317;33.356;-117.184;2022-08-30T02:39:55;98885.61;;;28.66;23.89
47592;BME280;33317;33.356;-117.184;2022-08-30T02:42:24;98885.96;;;28.32;23.83
47592;BME280;33317;33.356;-117.184;2022-08-30T02:44:53;98889.50;;;28.13;23.91
47592;BME280;33317;33.356;-117.184;2022-08-30T02:47:27;98892.08;;;28.25;24.24
47592;BME280;33317;33.356;-117.184;2022-08-30T02:49:59;98896.41;;;28.32;23.93
47592;BME280;33317;33.356;-117.184;2022-08-30T02:52:29;98899.85;;;28.80;23.76
47592;BME280;33317;33.356;-117.184;2022-08-30T02:54:59;98910.59;;;29.04;23.43
47592;BME280;33317;33.356;-117.184;2022-08-30T02:57:30;98918.47;;;29.03;23.30
47592;BME280;33317;33.356;-117.184;2022-08-30T03:00:05;98921.62;;;28.37;24.02
47592;BME280;33317;33.356;-117.184;2022-08-30T03:02:37;98925.43;;;28.78;24.09
47592;BME280;33317;33.356;-117.184;2022-08-30T03:05:06;98934.55;;;28.80;24.22
47592;BME280;33317;33.356;-117.184;2022-08-30T03:07:43;98936.32;;;29.12;24.46
47592;BME280;33317;33.356;-117.184;2022-08-30T03:10:15;98942.73;;;29.35;23.79
47592;BME280;33317;33.356;-117.184;2022-08-30T03:12:49;98947.23;;;29.52;23.61
47592;BME280;33317;33.356;-117.184;2022-08-30T03:15:18;98949.57;;;28.94;24.00
47592;BME280;33317;33.356;-117.184;2022-08-30T03:17:48;98957.47;;;28.53;24.31
47592;BME280;33317;33.356;-117.184;2022-08-30T03:20:18;98955.57;;;28.59;24.62
47592;BME280;33317;33.356;-117.184;2022-08-30T03:22:49;98958.88;;;28.77;24.05
47592;BME280;33317;33.356;-117.184;2022-08-30T03:25:20;98963.06;;;27.90;25.46
47592;BME280;33317;33.356;-117.184;2022-08-30T03:27:49;98968.03;;;27.81;26.18
47592;BME280;33317;33.356;-117.184;2022-08-30T03:30:20;98971.12;;;26.87;26.41
47592;BME280;33317;33.356;-117.184;2022-08-30T03:33:06;98977.81;;;27.77;25.19
47592;BME280;33317;33.356;-117.184;2022-08-30T03:35:41;98982.54;;;27.81;25.06
47592;BME280;33317;33.356;-117.184;2022-08-30T03:38:09;98986.12;;;27.97;24.79
47592;BME280;33317;33.356;-117.184;2022-08-30T03:40:40;98993.06;;;28.35;24.87
47592;BME280;33317;33.356;-117.184;2022-08-30T03:43:15;98996.02;;;28.81;24.84
47592;BME280;33317;33.356;-117.184;2022-08-30T03:45:50;98995.68;;;29.04;24.85
47592;BME280;33317;33.356;-117.184;2022-08-30T03:48:24;98999.79;;;29.05;24.11
47592;BME280;33317;33.356;-117.184;2022-08-30T03:50:57;99003.49;;;28.52;24.13
47592;BME280;33317;33.356;-117.184;2022-08-30T03:53:27;99002.74;;;28.78;24.38
47592;BME280;33317;33.356;-117.184;2022-08-30T03:55:56;99007.13;;;29.16;23.80
47592;BME280;33317;33.356;-117.184;2022-08-30T03:58:30;99009.43;;;28.97;23.51
47592;BME280;33317;33.356;-117.184;2022-08-30T04:00:58;99010.39;;;29.21;23.47
47592;BME280;33317;33.356;-117.184;2022-08-30T04:03:27;99009.56;;;29.09;23.54
47592;BME280;33317;33.356;-117.184;2022-08-30T04:05:56;99007.57;;;29.49;23.48
47592;BME280;33317;33.356;-117.184;2022-08-30T04:08:27;99011.77;;;29.53;24.22
47592;BME280;33317;33.356;-117.184;2022-08-30T04:10:57;99014.10;;;29.40;24.06
47592;BME280;33317;33.356;-117.184;2022-08-30T04:13:27;99012.17;;;28.92;24.16
47592;BME280;33317;33.356;-117.184;2022-08-30T04:16:02;99012.27;;;28.80;24.60
47592;BME280;33317;33.356;-117.184;2022-08-30T04:18:31;99012.78;;;29.13;24.37
47592;BME280;33317;33.356;-117.184;2022-08-30T04:21:10;99015.13;;;29.31;24.30
47592;BME280;33317;33.356;-117.184;2022-08-30T04:23:39;99017.43;;;29.44;24.17
47592;BME280;33317;33.356;-117.184;2022-08-30T04:26:08;99014.34;;;29.50;24.03
47592;BME280;33317;33.356;-117.184;2022-08-30T04:28:38;99014.87;;;28.93;23.64
47592;BME280;33317;33.356;-117.184;2022-08-30T04:31:08;99014.36;;;28.89;23.96
47592;BME280;33317;33.356;-117.184;2022-08-30T04:33:39;99011.45;;;28.83;23.89
47592;BME280;33317;33.356;-117.184;2022-08-30T04:36:09;99009.92;;;29.00;23.91
47592;BME280;33317;33.356;-117.184;2022-08-30T04:38:44;99012.32;;;29.18;23.99
47592;BME280;33317;33.356;-117.184;2022-08-30T04:41:21;99015.43;;;28.80;23.92
47592;BME280;33317;33.356;-117.184;2022-08-30T04:43:52;99015.47;;;29.36;23.89
47592;BME280;33317;33.356;-117.184;2022-08-30T04:46:24;99018.30;;;29.41;23.92
47592;BME280;33317;33.356;-117.184;2022-08-30T04:48:53;99019.45;;;29.46;23.91
47592;BME280;33317;33.356;-117.184;2022-08-30T04:51:21;99021.22;;;29.46;24.05
47592;BME280;33317;33.356;-117.184;2022-08-30T04:53:49;99020.68;;;29.30;23.56
47592;BME280;33317;33.356;-117.184;2022-08-30T04:56:20;99025.50;;;28.99;24.20
47592;BME280;33317;33.356;-117.184;2022-08-30T04:58:50;99017.63;;;28.98;24.27
47592;BME280;33317;33.356;-117.184;2022-08-30T05:01:27;99017.09;;;28.96;24.02
47592;BME280;33317;33.356;-117.184;2022-08-30T05:03:57;99013.09;;;29.03;23.73
47592;BME280;33317;33.356;-117.184;2022-08-30T05:06:29;99016.06;;;29.18;23.63
47592;BME280;33317;33.356;-117.184;2022-08-30T05:08:58;99014.81;;;29.26;23.68
47592;BME280;33317;33.356;-117.184;2022-08-30T05:11:27;99014.41;;;29.28;23.89
47592;BME280;33317;33.356;-117.184;2022-08-30T05:13:57;99013.41;;;29.28;23.91
47592;BME280;33317;33.356;-117.184;2022-08-30T05:16:25;99013.07;;;29.27;23.93
47592;BME280;33317;33.356;-117.184;2022-08-30T05:18:55;99010.44;;;29.03;24.03
47592;BME280;33317;33.356;-117.184;2022-08-30T05:21:24;99008.89;;;29.30;24.07
47592;BME280;33317;33.356;-117.184;2022-08-30T05:23:55;99006.23;;;29.31;23.99
47592;BME280;33317;33.356;-117.184;2022-08-30T05:26:28;99005.86;;;29.33;24.06
47592;BME280;33317;33.356;-117.184;2022-08-30T05:28:57;99004.49;;;29.56;24.08
47592;BME280;33317;33.356;-117.184;2022-08-30T05:31:29;99002.85;;;29.35;24.15
47592;BME280;33317;33.356;-117.184;2022-08-30T05:33:58;99001.80;;;29.09;24.40
47592;BME280;33317;33.356;-117.184;2022-08-30T05:36:30;99002.52;;;29.36;24.40
47592;BME280;33317;33.356;-117.184;2022-08-30T05:39:01;99001.09;;;29.37;24.43
47592;BME280;33317;33.356;-117.184;2022-08-30T05:41:29;98999.91;;;29.36;24.41
47592;BME280;33317;33.356;-117.184;2022-08-30T05:43:59;98999.45;;;29.36;24.41
47592;BME280;33317;33.356;-117.184;2022-08-30T05:46:30;99006.20;;;29.09;24.44
47592;BME280;33317;33.356;-117.184;2022-08-30T05:49:00;99007.41;;;29.09;24.62
47592;BME280;33317;33.356;-117.184;2022-08-30T05:51:30;99007.72;;;29.37;24.48
47592;BME280;33317;33.356;-117.184;2022-08-30T05:54:01;99006.43;;;29.38;24.59
47592;BME280;33317;33.356;-117.184;2022-08-30T05:56:37;99009.83;;;29.44;24.54
47592;BME280;33317;33.356;-117.184;2022-08-30T05:59:07;99010.56;;;29.46;24.55
47592;BME280;33317;33.356;-117.184;2022-08-30T06:01:38;99012.21;;;29.87;24.71
47592;BME280;33317;33.356;-117.184;2022-08-30T06:04:10;99016.82;;;29.39;24.72
47592;BME280;33317;33.356;-117.184;2022-08-30T06:06:40;99019.76;;;29.36;24.87
47592;BME280;33317;33.356;-117.184;2022-08-30T06:09:10;99019.70;;;29.32;24.96
47592;BME280;33317;33.356;-117.184;2022-08-30T06:11:40;99020.30;;;29.31;25.01
47592;BME280;33317;33.356;-117.184;2022-08-30T06:14:08;99019.71;;;29.31;25.00
47592;BME280;33317;33.356;-117.184;2022-08-30T06:16:38;99019.28;;;29.29;25.05
47592;BME280;33317;33.356;-117.184;2022-08-30T06:19:07;99026.04;;;29.28;25.16
47592;BME280;33317;33.356;-117.184;2022-08-30T06:21:37;99025.00;;;29.51;25.27
47592;BME280;33317;33.356;-117.184;2022-08-30T06:24:07;99020.13;;;29.28;25.73
47592;BME280;33317;33.356;-117.184;2022-08-30T06:26:38;99023.74;;;29.30;25.45
47592;BME280;33317;33.356;-117.184;2022-08-30T06:29:07;99022.18;;;29.30;25.48
47592;BME280;33317;33.356;-117.184;2022-08-30T06:31:37;99026.47;;;29.28;25.60
47592;BME280;33317;33.356;-117.184;2022-08-30T06:34:06;99029.38;;;29.26;25.54
47592;BME280;33317;33.356;-117.184;2022-08-30T06:36:35;99028.06;;;29.24;25.59
47592;BME280;33317;33.356;-117.184;2022-08-30T06:39:03;99026.84;;;29.28;25.62
47592;BME280;33317;33.356;-117.184;2022-08-30T06:41:33;99026.73;;;29.27;25.59
47592;BME280;33317;33.356;-117.184;2022-08-30T06:44:03;99030.19;;;29.25;25.59
47592;BME280;33317;33.356;-117.184;2022-08-30T06:46:34;99034.47;;;29.23;25.86
47592;BME280;33317;33.356;-117.184;2022-08-30T06:49:03;99038.52;;;29.21;25.84
47592;BME280;33317;33.356;-117.184;2022-08-30T06:51:35;99043.82;;;29.19;25.90
47592;BME280;33317;33.356;-117.184;2022-08-30T06:54:07;99043.63;;;28.89;25.95
47592;BME280;33317;33.356;-117.184;2022-08-30T06:56:36;99046.51;;;29.15;25.91
47592;BME280;33317;33.356;-117.184;2022-08-30T06:59:05;99048.52;;;29.13;26.15
47592;BME280;33317;33.356;-117.184;2022-08-30T07:01:34;99051.34;;;29.19;25.87
47592;BME280;33317;33.356;-117.184;2022-08-30T07:04:03;99051.78;;;29.19;26.04
47592;BME280;33317;33.356;-117.184;2022-08-30T07:06:32;99058.76;;;29.16;26.01
47592;BME280;33317;33.356;-117.184;2022-08-30T07:09:01;99061.02;;;29.15;26.04
47592;BME280;33317;33.356;-117.184;2022-08-30T07:11:31;99056.09;;;29.16;26.21
47592;BME280;33317;33.356;-117.184;2022-08-30T07:14:02;99055.65;;;29.39;26.11
47592;BME280;33317;33.356;-117.184;2022-08-30T07:16:32;99058.59;;;29.16;26.12
47592;BME280;33317;33.356;-117.184;2022-08-30T07:19:01;99058.85;;;29.15;26.19
47592;BME280;33317;33.356;-117.184;2022-08-30T07:21:33;99057.00;;;29.13;26.24
47592;BME280;33317;33.356;-117.184;2022-08-30T07:24:04;99052.54;;;29.32;26.24
47592;BME280;33317;33.356;-117.184;2022-08-30T07:26:35;99053.41;;;29.31;26.37
47592;BME280;33317;33.356;-117.184;2022-08-30T07:29:05;99054.69;;;29.03;26.49
47592;BME280;33317;33.356;-117.184;2022-08-30T07:31:35;99057.64;;;29.01;26.54
47592;BME280;33317;33.356;-117.184;2022-08-30T07:34:05;99057.74;;;29.04;26.51
47592;BME280;33317;33.356;-117.184;2022-08-30T07:36:35;99057.56;;;29.10;26.39
47592;BME280;33317;33.356;-117.184;2022-08-30T07:39:05;99057.69;;;28.77;26.48
47592;BME280;33317;33.356;-117.184;2022-08-30T07:41:36;99061.62;;;28.99;26.65
47592;BME280;33317;33.356;-117.184;2022-08-30T07:44:05;99058.66;;;28.98;26.50
47592;BME280;33317;33.356;-117.184;2022-08-30T07:46:33;99058.14;;;28.96;26.56
47592;BME280;33317;33.356;-117.184;2022-08-30T07:49:02;99058.50;;;28.96;26.54
47592;BME280;33317;33.356;-117.184;2022-08-30T07:51:32;99060.51;;;28.96;26.56
47592;BME280;33317;33.356;-117.184;2022-08-30T07:54:00;99061.64;;;29.17;26.70
47592;BME280;33317;33.356;-117.184;2022-08-30T07:56:28;99061.21;;;29.38;26.76
47592;BME280;33317;33.356;-117.184;2022-08-30T07:58:57;99062.20;;;29.15;26.63
47592;BME280;33317;33.356;-117.184;2022-08-30T08:01:25;99064.59;;;29.15;26.66
47592;BME280;33317;33.356;-117.184;2022-08-30T08:03:54;99062.24;;;29.13;26.69
47592;BME280;33317;33.356;-117.184;2022-08-30T08:06:23;99058.10;;;28.90;26.79
47592;BME280;33317;33.356;-117.184;2022-08-30T08:08:52;99057.25;;;28.90;26.73
47592;BME280;33317;33.356;-117.184;2022-08-30T08:11:22;99057.38;;;28.87;26.80
47592;BME280;33317;33.356;-117.184;2022-08-30T08:13:52;99057.57;;;28.87;26.78
47592;BME280;33317;33.356;-117.184;2022-08-30T08:16:22;99057.29;;;28.84;26.86
47592;BME280;33317;33.356;-117.184;2022-08-30T08:18:51;99059.12;;;29.07;26.84
47592;BME280;33317;33.356;-117.184;2022-08-30T08:21:21;99058.90;;;28.82;26.97
47592;BME280;33317;33.356;-117.184;2022-08-30T08:23:51;99064.25;;;28.80;26.97
47592;BME280;33317;33.356;-117.184;2022-08-30T08:26:20;99065.85;;;28.76;27.01
47592;BME280;33317;33.356;-117.184;2022-08-30T08:28:48;99063.94;;;28.77;27.09
47592;BME280;33317;33.356;-117.184;2022-08-30T08:31:19;99064.09;;;28.99;27.05
47592;BME280;33317;33.356;-117.184;2022-08-30T08:33:48;99065.10;;;28.98;27.01
47592;BME280;33317;33.356;-117.184;2022-08-30T08:36:17;99064.44;;;28.93;26.94
47592;BME280;33317;33.356;-117.184;2022-08-30T08:38:45;99058.73;;;28.67;27.08
47592;BME280;33317;33.356;-117.184;2022-08-30T08:41:24;99058.30;;;28.85;27.13
47592;BME280;33317;33.356;-117.184;2022-08-30T08:43:58;99050.64;;;28.83;27.23
47592;BME280;33317;33.356;-117.184;2022-08-30T08:46:29;99048.00;;;28.79;27.22
47592;BME280;33317;33.356;-117.184;2022-08-30T08:49:02;99048.63;;;28.82;27.48
47592;BME280;33317;33.356;-117.184;2022-08-30T08:51:34;99050.74;;;28.83;27.29
47592;BME280;33317;33.356;-117.184;2022-08-30T08:54:07;99051.04;;;28.81;27.34
47592;BME280;33317;33.356;-117.184;2022-08-30T08:56:38;99051.22;;;28.58;27.43
47592;BME280;33317;33.356;-117.184;2022-08-30T08:59:08;99052.18;;;29.02;27.28
47592;BME280;33317;33.356;-117.184;2022-08-30T09:01:37;99052.39;;;29.02;27.36
47592;BME280;33317;33.356;-117.184;2022-08-30T09:04:10;99053.92;;;29.03;27.31
47592;BME280;33317;33.356;-117.184;2022-08-30T09:06:49;99054.55;;;28.79;27.29
47592;BME280;33317;33.356;-117.184;2022-08-30T09:09:22;99051.72;;;28.82;27.28
47592;BME280;33317;33.356;-117.184;2022-08-30T09:11:54;99051.06;;;28.80;27.28
47592;BME280;33317;33.356;-117.184;2022-08-30T09:14:27;99050.23;;;28.72;27.41
47592;BME280;33317;33.356;-117.184;2022-08-30T09:17:00;99047.93;;;28.85;27.50
47592;BME280;33317;33.356;-117.184;2022-08-30T09:19:36;99047.33;;;28.78;27.55
47592;BME280;33317;33.356;-117.184;2022-08-30T09:22:14;99043.80;;;28.75;27.64
47592;BME280;33317;33.356;-117.184;2022-08-30T09:24:45;99045.95;;;28.43;27.68
47592;BME280;33317;33.356;-117.184;2022-08-30T09:27:18;99045.25;;;28.62;27.72
47592;BME280;33317;33.356;-117.184;2022-08-30T09:29:54;99046.95;;;28.56;27.80
47592;BME280;33317;33.356;-117.184;2022-08-30T09:32:27;99047.19;;;28.37;27.76
47592;BME280;33317;33.356;-117.184;2022-08-30T09:34:57;99044.15;;;28.55;27.78
47592;BME280;33317;33.356;-117.184;2022-08-30T09:37:33;99041.54;;;28.55;27.84
47592;BME280;33317;33.356;-117.184;2022-08-30T09:40:11;99039.25;;;28.58;27.75
47592;BME280;33317;33.356;-117.184;2022-08-30T09:42:40;99037.23;;;28.61;27.94
47592;BME280;33317;33.356;-117.184;2022-08-30T09:45:30;99037.49;;;28.88;27.92
47592;BME280;33317;33.356;-117.184;2022-08-30T09:47:59;99035.92;;;28.64;27.86
47592;BME280;33317;33.356;-117.184;2022-08-30T09:50:31;99035.36;;;28.67;27.84
47592;BME280;33317;33.356;-117.184;2022-08-30T09:53:07;99034.08;;;28.69;27.82
47592;BME280;33317;33.356;-117.184;2022-08-30T09:55:51;99033.98;;;28.45;27.89
47592;BME280;33317;33.356;-117.184;2022-08-30T09:58:30;99036.26;;;28.49;27.73
47592;BME280;33317;33.356;-117.184;2022-08-30T10:01:09;99036.27;;;28.49;27.84
47592;BME280;33317;33.356;-117.184;2022-08-30T10:03:42;99035.09;;;28.74;27.68
47592;BME280;33317;33.356;-117.184;2022-08-30T10:06:21;99034.45;;;28.49;27.74
47592;BME280;33317;33.356;-117.184;2022-08-30T10:09:02;99033.23;;;28.48;27.72
47592;BME280;33317;33.356;-117.184;2022-08-30T10:11:40;99032.96;;;28.66;27.91
47592;BME280;33317;33.356;-117.184;2022-08-30T10:14:51;99030.20;;;28.11;27.81
47592;BME280;33317;33.356;-117.184;2022-08-30T10:17:33;99030.46;;;28.31;27.91
47592;BME280;33317;33.356;-117.184;2022-08-30T10:20:16;99029.85;;;28.51;27.95
47592;BME280;33317;33.356;-117.184;2022-08-30T10:22:51;99027.42;;;28.50;27.98
47592;BME280;33317;33.356;-117.184;2022-08-30T10:25:25;99025.61;;;28.25;28.03
47592;BME280;33317;33.356;-117.184;2022-08-30T10:28:01;99027.55;;;28.47;28.07
47592;BME280;33317;33.356;-117.184;2022-08-30T10:30:35;99030.17;;;28.19;27.99
47592;BME280;33317;33.356;-117.184;2022-08-30T10:33:09;99032.92;;;28.38;28.22
47592;BME280;33317;33.356;-117.184;2022-08-30T10:35:43;99031.98;;;28.39;28.12
47592;BME280;33317;33.356;-117.184;2022-08-30T10:38:20;99030.11;;;28.35;28.22
47592;BME280;33317;33.356;-117.184;2022-08-30T10:40:54;99033.92;;;28.41;28.08
47592;BME280;33317;33.356;-117.184;2022-08-30T10:43:30;99036.39;;;28.47;28.09
47592;BME280;33317;33.356;-117.184;2022-08-30T10:46:15;99029.10;;;28.52;28.11
47592;BME280;33317;33.356;-117.184;2022-08-30T10:48:47;99031.68;;;28.55;28.02
47592;BME280;33317;33.356;-117.184;2022-08-30T10:51:25;99029.82;;;28.54;28.03
47592;BME280;33317;33.356;-117.184;2022-08-30T10:54:00;99030.24;;;28.10;28.05
47592;BME280;33317;33.356;-117.184;2022-08-30T10:56:33;99027.54;;;28.56;28.06
47592;BME280;33317;33.356;-117.184;2022-08-30T10:59:04;99028.41;;;28.54;28.02
47592;BME280;33317;33.356;-117.184;2022-08-30T11:01:47;99028.03;;;28.52;28.08
47592;BME280;33317;33.356;-117.184;2022-08-30T11:04:34;99030.93;;;28.44;28.16
47592;BME280;33317;33.356;-117.184;2022-08-30T11:07:19;99027.21;;;28.40;28.15
47592;BME280;33317;33.356;-117.184;2022-08-30T11:10:08;99023.67;;;28.37;28.28
47592;BME280;33317;33.356;-117.184;2022-08-30T11:12:54;99023.15;;;28.37;28.32
47592;BME280;33317;33.356;-117.184;2022-08-30T11:15:28;99025.16;;;28.31;28.38
47592;BME280;33317;33.356;-117.184;2022-08-30T11:18:01;99024.04;;;28.31;28.26
47592;BME280;33317;33.356;-117.184;2022-08-30T11:20:34;99021.69;;;28.32;28.25
47592;BME280;33317;33.356;-117.184;2022-08-30T11:23:19;99022.81;;;28.29;28.34
47592;BME280;33317;33.356;-117.184;2022-08-30T11:25:50;99023.56;;;28.21;28.42
47592;BME280;33317;33.356;-117.184;2022-08-30T11:30:50;99022.99;;;28.78;28.54
47592;BME280;33317;33.356;-117.184;2022-08-30T11:33:39;99020.94;;;28.31;28.38
47592;BME280;33317;33.356;-117.184;2022-08-30T11:36:10;99019.52;;;28.33;28.38
47592;BME280;33317;33.356;-117.184;2022-08-30T11:39:00;99018.08;;;28.33;28.34
47592;BME280;33317;33.356;-117.184;2022-08-30T11:41:34;99020.40;;;28.41;28.28
47592;BME280;33317;33.356;-117.184;2022-08-30T11:44:35;99025.75;;;28.43;28.25
47592;BME280;33317;33.356;-117.184;2022-08-30T11:47:45;99025.53;;;28.45;28.19
47592;BME280;33317;33.356;-117.184;2022-08-30T11:50:17;99020.75;;;28.48;28.23
47592;BME280;33317;33.356;-117.184;2022-08-30T11:52:56;99018.48;;;28.46;28.16
47592;BME280;33317;33.356;-117.184;2022-08-30T11:55:42;99021.08;;;28.23;28.27
47592;BME280;33317;33.356;-117.184;2022-08-30T11:58:23;99021.97;;;28.45;28.23
47592;BME280;33317;33.356;-117.184;2022-08-30T12:01:16;99022.68;;;28.60;28.37
47592;BME280;33317;33.356;-117.184;2022-08-30T12:03:53;99025.18;;;28.29;28.39
47592;BME280;33317;33.356;-117.184;2022-08-30T12:06:46;99024.91;;;28.13;28.45
47592;BME280;33317;33.356;-117.184;2022-08-30T12:09:58;99024.23;;;28.15;28.63
47592;BME280;33317;33.356;-117.184;2022-08-30T12:13:03;99027.04;;;28.37;28.65
47592;BME280;33317;33.356;-117.184;2022-08-30T12:16:09;99031.14;;;28.53;28.62
47592;BME280;33317;33.356;-117.184;2022-08-30T12:18:42;99031.91;;;28.62;28.58
47592;BME280;33317;33.356;-117.184;2022-08-30T12:21:24;99036.65;;;28.12;28.63
47592;BME280;33317;33.356;-117.184;2022-08-30T12:23:57;99033.10;;;28.04;28.65
47592;BME280;33317;33.356;-117.184;2022-08-30T12:26:32;99033.49;;;28.26;28.68
47592;BME280;33317;33.356;-117.184;2022-08-30T12:29:13;99036.24;;;28.27;28.70
47592;BME280;33317;33.356;-117.184;2022-08-30T12:31:47;99041.11;;;28.06;28.71
47592;BME280;33317;33.356;-117.184;2022-08-30T12:34:21;99039.48;;;28.03;28.76
47592;BME280;33317;33.356;-117.184;2022-08-30T12:36:54;99039.89;;;28.10;28.73
47592;BME280;33317;33.356;-117.184;2022-08-30T12:39:26;99037.59;;;28.38;28.73
47592;BME280;33317;33.356;-117.184;2022-08-30T12:42:05;99035.19;;;28.16;28.55
47592;BME280;33317;33.356;-117.184;2022-08-30T12:44:37;99043.57;;;28.14;28.74
47592;BME280;33317;33.356;-117.184;2022-08-30T12:47:06;99041.41;;;28.16;28.72
47592;BME280;33317;33.356;-117.184;2022-08-30T12:49:36;99040.68;;;28.45;28.63
47592;BME280;33317;33.356;-117.184;2022-08-30T12:52:27;99041.43;;;28.44;28.54
47592;BME280;33317;33.356;-117.184;2022-08-30T12:55:11;99042.83;;;28.17;28.61
47592;BME280;33317;33.356;-117.184;2022-08-30T12:57:42;99045.48;;;28.03;28.73
47592;BME280;33317;33.356;-117.184;2022-08-30T13:00:26;99047.39;;;28.02;28.77